Terminal Aerodrome Forecast
Issued by NWS

Home | Current Version | Previous Version | Text Only | Print | Product List | Glossary On
Versions: 1 2 3 4 5 6 7 8 9 10 11 12 13 14 15 16 17
587
FTUS43 KGRR 120520
TAFLAN
TAF
KLAN 120520Z 1206/1306 23007KT P6SM SCT035
     FM121400 26012G21KT 4SM -SHSN BLSN OVC030
     FM122100 30015G25KT 4SM -SHSN BLSN OVC035
     FM130000 32013G22KT P6SM BKN040=

USA.gov is the U.S. government's official web portal to all federal, state and local government web resources and services.